createdAt,value
2022-10-14T00:01:44.569Z,23.45
2022-10-14T00:04:13.178Z,21.88
2022-10-14T00:06:41.989Z,23.13
2022-10-14T00:09:12.212Z,22.55
2022-10-14T00:11:41.373Z,21.80
2022-10-14T00:14:15.731Z,23.45
2022-10-14T00:16:48.810Z,24.15
2022-10-14T00:19:17.598Z,24.00
2022-10-14T00:21:47.852Z,23.80
2022-10-14T00:24:18.885Z,23.50
2022-10-14T00:26:48.105Z,23.50
2022-10-14T00:29:19.454Z,23.75
2022-10-14T00:31:51.788Z,23.63
2022-10-14T00:34:20.395Z,24.00
2022-10-14T00:36:49.039Z,24.73
2022-10-14T00:39:18.314Z,24.55
2022-10-14T00:41:47.429Z,25.08
2022-10-14T00:45:01.450Z,25.27
2022-10-14T00:47:32.216Z,25.15
2022-10-14T00:50:02.000Z,27.20
2022-10-14T00:52:31.157Z,25.52
2022-10-14T00:55:05.925Z,25.05
2022-10-14T00:57:36.967Z,27.02
2022-10-14T01:00:10.462Z,25.30
2022-10-14T01:02:41.204Z,26.73
2022-10-14T01:05:14.547Z,26.13
2022-10-14T01:08:00.420Z,26.42
2022-10-14T01:10:42.995Z,26.92
2022-10-14T01:13:26.644Z,26.15
2022-10-14T01:16:10.966Z,26.30
2022-10-14T01:19:01.696Z,26.58
2022-10-14T01:21:39.577Z,28.17
2022-10-14T01:24:55.451Z,29.67
2022-10-14T01:28:04.443Z,30.00
2022-10-14T01:30:40.951Z,28.00
2022-10-14T01:33:15.737Z,29.52
2022-10-14T01:36:02.913Z,27.00
2022-10-14T01:38:37.159Z,28.60
2022-10-14T01:41:13.243Z,27.10
2022-10-14T01:43:46.763Z,28.10
2022-10-14T01:46:20.408Z,28.75
2022-10-14T01:48:54.755Z,31.05
2022-10-14T01:51:30.954Z,28.98
2022-10-14T01:54:05.724Z,29.55
2022-10-14T01:56:40.313Z,29.40
2022-10-14T01:59:12.682Z,29.85
2022-10-14T02:01:42.734Z,30.52
2022-10-14T02:04:17.374Z,30.13
2022-10-14T02:06:56.222Z,29.83
2022-10-14T02:09:36.744Z,30.45
2022-10-14T02:12:23.768Z,29.90
2022-10-14T02:15:10.583Z,30.15
2022-10-14T02:17:52.723Z,29.85
2022-10-14T02:20:30.492Z,30.48
2022-10-14T02:23:05.908Z,29.45
2022-10-14T02:25:38.605Z,30.58
2022-10-14T02:28:12.282Z,30.92
2022-10-14T02:30:47.098Z,31.42
2022-10-14T02:33:20.908Z,30.17
2022-10-14T02:35:51.985Z,29.90
2022-10-14T02:38:23.062Z,29.80
2022-10-14T02:40:52.956Z,30.95
2022-10-14T02:43:21.859Z,30.83
2022-10-14T02:45:50.489Z,30.25
2022-10-14T02:48:20.431Z,30.08
2022-10-14T02:50:48.922Z,30.40
2022-10-14T02:53:18.926Z,28.80
2022-10-14T02:55:47.737Z,30.20
2022-10-14T02:58:16.467Z,30.30
2022-10-14T03:00:44.986Z,29.85
2022-10-14T03:03:13.600Z,30.98
2022-10-14T03:05:44.658Z,30.95
2022-10-14T03:08:13.297Z,30.48
2022-10-14T03:10:41.912Z,29.95
2022-10-14T03:13:10.511Z,31.13
2022-10-14T03:15:39.081Z,31.25
2022-10-14T03:18:08.121Z,31.42
2022-10-14T03:20:37.389Z,29.83
2022-10-14T03:23:07.292Z,32.33
2022-10-14T03:25:35.869Z,30.50
2022-10-14T03:28:04.545Z,31.20
2022-10-14T03:30:33.234Z,32.25
2022-10-14T03:33:01.785Z,33.30
2022-10-14T03:35:30.456Z,31.95
2022-10-14T03:38:02.260Z,33.42
2022-10-14T03:40:32.279Z,32.78
2022-10-14T03:43:02.075Z,32.13
2022-10-14T03:45:30.633Z,31.65
2022-10-14T03:47:59.216Z,32.17
2022-10-14T03:50:28.142Z,31.67
2022-10-14T03:52:57.148Z,31.17
2022-10-14T03:55:25.877Z,32.88
2022-10-14T03:57:55.858Z,32.55
2022-10-14T04:00:24.648Z,33.05
2022-10-14T04:02:53.340Z,34.08
2022-10-14T04:05:21.893Z,32.72
2022-10-14T04:07:50.589Z,33.67
2022-10-14T04:10:19.315Z,32.45
2022-10-14T04:12:48.504Z,32.00
2022-10-14T04:15:18.682Z,33.08
2022-10-14T04:17:47.357Z,42.28
2022-10-14T04:20:16.208Z,33.38
2022-10-14T04:22:44.961Z,32.78
2022-10-14T04:25:13.612Z,32.08
2022-10-14T04:27:42.293Z,36.70
2022-10-14T04:30:13.996Z,32.75
2022-10-14T04:32:44.225Z,32.63
2022-10-14T04:35:12.807Z,32.30
2022-10-14T04:37:41.407Z,33.22
2022-10-14T04:40:11.264Z,33.28
2022-10-14T04:42:39.860Z,31.15
2022-10-14T04:45:10.994Z,34.00
2022-10-14T04:47:39.628Z,37.90
2022-10-14T04:50:11.132Z,33.95
2022-10-14T04:52:40.025Z,32.42
2022-10-14T04:55:09.762Z,32.78
2022-10-14T04:57:40.410Z,31.67
2022-10-14T05:00:11.156Z,34.63
2022-10-14T05:02:39.998Z,37.28
2022-10-14T05:05:11.037Z,34.55
2022-10-14T05:07:39.748Z,34.25
2022-10-14T05:10:10.396Z,33.10
2022-10-14T05:12:40.658Z,34.17
2022-10-14T05:15:11.060Z,31.52
2022-10-14T05:17:40.171Z,31.98
2022-10-14T05:20:11.436Z,31.38
2022-10-14T05:22:40.366Z,30.65
2022-10-14T05:25:09.838Z,30.67
2022-10-14T05:27:38.739Z,31.27
2022-10-14T05:30:08.924Z,30.75
2022-10-14T05:32:37.530Z,31.90
2022-10-14T05:35:06.791Z,36.88
2022-10-14T05:37:36.769Z,35.33
2022-10-14T05:40:06.832Z,45.42
2022-10-14T05:42:35.409Z,37.33
2022-10-14T05:45:04.269Z,32.38
2022-10-14T05:47:33.005Z,33.08
2022-10-14T05:50:03.371Z,32.78
2022-10-14T05:52:34.359Z,31.70
2022-10-14T05:55:05.314Z,33.08
2022-10-14T05:57:34.251Z,30.92
2022-10-14T06:00:03.989Z,30.05
2022-10-14T06:02:33.232Z,29.35
2022-10-14T06:05:01.815Z,30.70
2022-10-14T06:07:30.496Z,29.60
2022-10-14T06:09:59.082Z,29.67
2022-10-14T06:12:29.117Z,31.02
2022-10-14T06:14:57.808Z,32.53
2022-10-14T06:17:26.660Z,30.50
2022-10-14T06:19:55.464Z,29.52
2022-10-14T06:22:24.479Z,30.27
2022-10-14T06:24:53.446Z,31.70
2022-10-14T06:27:22.157Z,29.58
2022-10-14T06:29:52.160Z,30.00
2022-10-14T06:32:21.085Z,29.77
2022-10-14T06:34:49.778Z,29.10
2022-10-14T06:37:18.527Z,30.25
2022-10-14T06:39:47.318Z,29.33
2022-10-14T06:42:15.967Z,31.23
2022-10-14T06:44:45.411Z,29.80
2022-10-14T06:47:15.502Z,28.63
2022-10-14T06:49:44.162Z,29.60
2022-10-14T06:52:14.532Z,30.67
2022-10-14T06:54:48.030Z,30.05
2022-10-14T06:57:17.370Z,31.75
2022-10-14T06:59:46.355Z,30.45
2022-10-14T07:02:16.796Z,33.13
2022-10-14T07:04:45.351Z,37.88
2022-10-14T07:07:13.920Z,36.33
2022-10-14T07:09:42.560Z,35.95
2022-10-14T07:12:11.149Z,37.22
2022-10-14T07:14:39.845Z,37.05
2022-10-14T07:17:09.327Z,38.88
2022-10-14T07:19:39.383Z,38.88
2022-10-14T07:22:08.161Z,38.88
2022-10-14T07:24:36.852Z,39.78
2022-10-14T07:27:05.853Z,39.15
2022-10-14T07:29:34.844Z,42.83
2022-10-14T07:32:03.763Z,41.35
2022-10-14T07:34:33.808Z,40.17
2022-10-14T07:37:03.867Z,39.65
2022-10-14T07:39:34.020Z,39.30
2022-10-14T07:42:02.685Z,38.58
2022-10-14T07:44:31.306Z,38.40
2022-10-14T07:47:01.761Z,39.65
2022-10-14T07:49:31.146Z,38.50
2022-10-14T07:51:59.992Z,41.20
2022-10-14T07:54:32.591Z,38.78
2022-10-14T07:57:01.323Z,41.03
2022-10-14T07:59:30.033Z,38.10
2022-10-14T08:01:59.254Z,39.05
2022-10-14T08:04:28.112Z,39.15
2022-10-14T08:06:56.753Z,37.20
2022-10-14T08:11:55.248Z,36.78
2022-10-14T08:14:24.043Z,38.10
2022-10-14T08:16:52.657Z,37.42
2022-10-14T08:19:21.918Z,38.80
2022-10-14T08:21:50.961Z,36.92
2022-10-14T08:24:19.467Z,36.53
2022-10-14T08:26:55.165Z,36.10
2022-10-14T08:29:24.207Z,35.20
2022-10-14T08:31:55.365Z,36.22
2022-10-14T08:34:24.593Z,34.88
2022-10-14T08:36:53.371Z,37.20
2022-10-14T08:39:22.912Z,34.92
2022-10-14T08:42:31.778Z,34.10
2022-10-14T08:45:10.262Z,32.17
2022-10-14T08:47:43.627Z,29.08
2022-10-14T08:50:26.962Z,30.67
2022-10-14T08:53:03.680Z,29.90
2022-10-14T08:55:38.748Z,28.23
2022-10-14T08:58:16.243Z,30.30
2022-10-14T09:00:51.235Z,28.30
2022-10-14T09:03:26.861Z,30.17
2022-10-14T09:06:01.676Z,22.73
2022-10-14T09:08:35.081Z,22.15
2022-10-14T09:11:04.097Z,20.98
2022-10-14T09:13:40.011Z,21.38
2022-10-14T09:16:17.307Z,24.15
2022-10-14T09:18:54.609Z,27.20
2022-10-14T09:21:51.708Z,27.10
2022-10-14T09:24:24.244Z,28.08
2022-10-14T09:29:30.652Z,34.80
2022-10-14T09:32:03.945Z,34.28
2022-10-14T09:34:36.615Z,38.88
2022-10-14T09:37:28.939Z,36.28
2022-10-14T09:40:03.563Z,33.35
2022-10-14T09:42:48.897Z,30.85
2022-10-14T09:45:22.817Z,34.13
2022-10-14T09:47:56.956Z,32.38
2022-10-14T09:50:31.908Z,33.47
2022-10-14T09:53:10.658Z,33.63
2022-10-14T09:55:48.864Z,33.38
2022-10-14T09:58:22.524Z,33.30
2022-10-14T10:00:58.691Z,35.53
2022-10-14T10:03:30.262Z,33.38
2022-10-14T10:06:04.836Z,32.67
2022-10-14T10:08:36.300Z,34.55
2022-10-14T10:11:08.944Z,33.25
2022-10-14T10:13:41.631Z,31.00
2022-10-14T10:16:24.908Z,33.97
2022-10-14T10:18:57.368Z,31.25
2022-10-14T10:21:30.202Z,33.22
2022-10-14T10:24:01.810Z,33.42
2022-10-14T10:26:33.528Z,32.17
2022-10-14T10:29:05.595Z,32.85
2022-10-14T10:32:01.779Z,31.77
2022-10-14T10:35:16.236Z,32.42
2022-10-14T10:38:00.617Z,30.58
2022-10-14T10:40:41.268Z,29.25
2022-10-14T10:43:34.413Z,28.70
2022-10-14T10:46:24.593Z,29.17
2022-10-14T10:49:06.315Z,27.95
2022-10-14T10:51:53.430Z,27.23
2022-10-14T10:54:40.890Z,25.50
2022-10-14T10:57:25.126Z,26.48
2022-10-14T11:00:02.935Z,26.58
2022-10-14T11:03:09.279Z,26.10
2022-10-14T11:06:00.196Z,24.05
2022-10-14T11:09:04.950Z,23.73
2022-10-14T11:12:13.574Z,22.38
2022-10-14T11:15:26.893Z,23.13
2022-10-14T11:18:04.344Z,23.63
2022-10-14T11:20:46.089Z,21.20
2022-10-14T11:23:39.534Z,16.98
2022-10-14T11:26:26.701Z,20.60
2022-10-14T11:29:08.474Z,22.83
2022-10-14T11:31:46.058Z,21.15
2022-10-14T11:34:43.074Z,22.75
2022-10-14T11:37:30.904Z,20.77
2022-10-14T11:40:15.242Z,21.30
2022-10-14T11:43:03.578Z,22.15
2022-10-14T11:45:51.744Z,22.15
2022-10-14T11:48:36.860Z,20.55
2022-10-14T11:51:16.114Z,19.98
2022-10-14T11:53:56.880Z,18.95
2022-10-14T11:56:36.832Z,18.65
2022-10-14T11:59:23.242Z,17.63
2022-10-14T12:01:59.277Z,19.67
2022-10-14T12:04:35.021Z,19.65
2022-10-14T12:07:13.235Z,18.77
2022-10-14T12:09:49.312Z,18.73
2022-10-14T12:12:26.242Z,17.63
2022-10-14T12:15:00.392Z,19.17
2022-10-14T12:17:37.410Z,18.65
2022-10-14T12:20:23.323Z,18.88
2022-10-14T12:22:53.975Z,20.73
2022-10-14T12:25:28.522Z,18.77
2022-10-14T12:27:58.951Z,18.75
2022-10-14T12:30:36.451Z,18.10
2022-10-14T12:33:08.928Z,19.42
2022-10-14T12:36:00.899Z,20.23
2022-10-14T12:38:34.628Z,18.65
2022-10-14T12:41:39.329Z,17.83
2022-10-14T12:44:20.367Z,17.05
2022-10-14T12:46:53.956Z,15.52
2022-10-14T12:49:30.362Z,14.48
2022-10-14T12:52:03.895Z,13.82
2022-10-14T12:54:35.427Z,15.82
2022-10-14T12:57:07.524Z,14.73
2022-10-14T12:59:40.744Z,14.13
2022-10-14T13:02:25.365Z,14.30
2022-10-14T13:04:56.878Z,13.90
2022-10-14T13:07:42.031Z,14.35
2022-10-14T13:10:47.312Z,14.45
2022-10-14T13:13:52.902Z,13.07
2022-10-14T13:17:25.925Z,13.52
2022-10-14T13:19:55.597Z,13.55
2022-10-14T13:22:41.368Z,14.07
2022-10-14T13:25:22.610Z,13.82
2022-10-14T13:28:17.561Z,14.05
2022-10-14T13:31:00.582Z,14.02
2022-10-14T13:33:40.293Z,12.32
2022-10-14T13:36:18.674Z,12.27
2022-10-14T13:38:56.112Z,10.82
2022-10-14T13:41:30.729Z,10.77
2022-10-14T13:44:02.398Z,9.55
2022-10-14T13:46:37.920Z,9.30
2022-10-14T13:51:53.647Z,10.13
2022-10-14T13:54:24.813Z,12.27
2022-10-14T13:57:38.148Z,10.60
2022-10-14T14:00:39.128Z,14.73
2022-10-14T14:02:48.976Z,21.33
2022-10-14T14:05:21.705Z,18.88
2022-10-14T14:11:10.992Z,18.95
2022-10-14T14:13:37.054Z,18.05
2022-10-14T14:16:05.853Z,16.65
2022-10-14T14:18:56.065Z,16.80
2022-10-14T14:21:33.492Z,16.25
2022-10-14T14:24:03.842Z,16.23
2022-10-14T14:26:37.554Z,15.93
2022-10-14T14:29:08.333Z,15.20
2022-10-14T14:32:06.193Z,14.43
2022-10-14T14:34:28.824Z,14.43
2022-10-14T14:37:25.091Z,15.98
2022-10-14T14:40:02.627Z,15.63
2022-10-14T14:42:37.645Z,16.33
2022-10-14T14:45:15.022Z,14.82
2022-10-14T14:47:44.923Z,13.38
2022-10-14T14:50:30.059Z,13.88
2022-10-14T14:53:05.904Z,14.55
2022-10-14T14:55:44.731Z,14.38
2022-10-14T14:58:30.371Z,14.63
2022-10-14T15:01:00.068Z,15.07
2022-10-14T15:03:34.583Z,13.85
2022-10-14T15:06:06.842Z,14.73
2022-10-14T15:08:39.080Z,14.57
2022-10-14T15:11:09.136Z,15.57
2022-10-14T15:13:53.506Z,14.00
2022-10-14T15:16:37.436Z,15.55
2022-10-14T15:19:38.743Z,18.90
2022-10-14T15:22:29.930Z,14.88
2022-10-14T15:25:26.407Z,17.05
2022-10-14T15:27:56.895Z,15.98
2022-10-14T15:30:34.961Z,16.13
2022-10-14T15:33:15.225Z,15.77
2022-10-14T15:35:45.475Z,16.77
2022-10-14T15:38:17.184Z,17.30
2022-10-14T15:40:48.853Z,16.80
2022-10-14T15:43:20.450Z,18.35
2022-10-14T15:46:13.808Z,16.83
2022-10-14T15:48:47.724Z,17.25
2022-10-14T15:51:19.739Z,16.10
2022-10-14T15:53:49.198Z,19.60
2022-10-14T15:56:21.216Z,21.23
2022-10-14T15:58:50.477Z,21.45
2022-10-14T16:01:22.563Z,20.83
2022-10-14T16:03:53.172Z,20.73
2022-10-14T16:06:22.877Z,20.40
2022-10-14T16:08:51.724Z,20.98
2022-10-14T16:11:27.224Z,22.27
2022-10-14T16:13:56.860Z,23.60
2022-10-14T16:16:33.184Z,24.90
2022-10-14T16:19:02.587Z,26.45
2022-10-14T16:21:31.592Z,27.15
2022-10-14T16:24:00.879Z,26.63
2022-10-14T16:26:30.937Z,25.58
2022-10-14T16:29:00.430Z,26.77
2022-10-14T16:31:29.063Z,26.67
2022-10-14T16:33:57.615Z,27.75
2022-10-14T16:36:26.913Z,26.02
2022-10-14T16:38:56.718Z,28.23
2022-10-14T16:41:25.301Z,27.42
2022-10-14T16:43:55.310Z,27.80
2022-10-14T16:46:44.800Z,29.55
2022-10-14T16:49:14.373Z,29.88
2022-10-14T16:51:43.748Z,29.85
2022-10-14T16:54:13.131Z,29.58
2022-10-14T16:56:53.682Z,30.70
2022-10-14T16:59:25.235Z,31.45
2022-10-14T17:01:54.360Z,30.10
2022-10-14T17:04:24.052Z,30.38
2022-10-14T17:06:52.938Z,30.85
2022-10-14T17:09:21.822Z,30.45
2022-10-14T17:11:51.050Z,29.80
2022-10-14T17:14:24.330Z,29.77
2022-10-14T17:16:53.505Z,31.58
2022-10-14T17:19:24.037Z,29.65
2022-10-14T17:21:52.729Z,31.35
2022-10-14T17:24:23.265Z,30.23
2022-10-14T17:26:51.935Z,30.00
2022-10-14T17:29:22.166Z,28.75
2022-10-14T17:31:50.833Z,28.92
2022-10-14T17:34:19.481Z,29.00
2022-10-14T17:36:48.022Z,31.55
2022-10-14T17:39:25.867Z,30.65
2022-10-14T17:41:57.960Z,29.83
2022-10-14T17:44:29.030Z,31.05
2022-10-14T17:46:59.358Z,30.23
2022-10-14T17:49:28.163Z,30.95
2022-10-14T17:51:56.696Z,31.27
2022-10-14T17:54:25.353Z,32.60
2022-10-14T17:56:53.995Z,31.15
2022-10-14T17:59:22.994Z,32.53
2022-10-14T18:02:08.356Z,31.52
2022-10-14T18:04:37.586Z,31.65
2022-10-14T18:07:06.243Z,32.38
2022-10-14T18:09:35.207Z,31.92
2022-10-14T18:12:08.800Z,34.65
2022-10-14T18:14:38.244Z,32.85
2022-10-14T18:17:10.827Z,32.53
2022-10-14T18:19:40.902Z,34.30
2022-10-14T18:22:11.296Z,33.90
2022-10-14T18:24:40.085Z,33.40
2022-10-14T18:27:08.867Z,33.05
2022-10-14T18:29:37.537Z,32.72
2022-10-14T18:32:07.646Z,32.00
2022-10-14T18:34:36.648Z,33.70
2022-10-14T18:37:05.472Z,32.97
2022-10-14T18:39:34.133Z,33.30
2022-10-14T18:42:02.806Z,33.30
2022-10-14T18:44:31.444Z,34.00
2022-10-14T18:47:00.399Z,33.22
2022-10-14T18:49:30.898Z,35.42
2022-10-14T18:51:59.503Z,33.95
2022-10-14T18:54:30.117Z,33.83
2022-10-14T18:56:59.808Z,33.95
2022-10-14T18:59:29.480Z,35.08
2022-10-14T19:01:58.372Z,34.65
2022-10-14T19:04:29.443Z,35.17
2022-10-14T19:06:58.996Z,35.70
2022-10-14T19:09:29.774Z,36.42
2022-10-14T19:11:59.651Z,36.15
2022-10-14T19:14:28.764Z,35.95
2022-10-14T19:16:57.385Z,33.92
2022-10-14T19:19:25.974Z,34.75
2022-10-14T19:21:59.610Z,33.15
2022-10-14T19:24:28.934Z,34.85
2022-10-14T19:26:57.872Z,33.33
2022-10-14T19:29:26.448Z,35.85
2022-10-14T19:31:55.146Z,33.80
2022-10-14T19:34:26.883Z,34.22
2022-10-14T19:37:00.151Z,35.15
2022-10-14T19:39:28.844Z,35.90
2022-10-14T19:41:57.882Z,38.63
2022-10-14T19:44:26.776Z,36.25
2022-10-14T19:46:55.442Z,35.00
2022-10-14T19:49:24.109Z,33.78
2022-10-14T19:51:52.721Z,33.17
2022-10-14T19:54:22.782Z,33.90
2022-10-14T19:56:51.627Z,35.20
2022-10-14T19:59:20.496Z,33.75
2022-10-14T20:01:49.457Z,33.28
2022-10-14T20:04:20.799Z,34.83
2022-10-14T20:06:51.469Z,35.85
2022-10-14T20:09:21.594Z,33.92
2022-10-14T20:11:50.382Z,34.13
2022-10-14T20:14:19.486Z,34.22
2022-10-14T20:16:52.184Z,34.92
2022-10-14T20:19:23.727Z,36.75
2022-10-14T20:21:52.426Z,36.53
2022-10-14T20:24:22.451Z,37.25
2022-10-14T20:26:51.123Z,46.88
2022-10-14T20:29:19.848Z,37.90
2022-10-14T20:31:48.456Z,40.30
2022-10-14T20:34:17.119Z,38.40
2022-10-14T20:36:45.737Z,38.40
2022-10-14T20:39:14.603Z,37.67
2022-10-14T20:41:44.589Z,39.08
2022-10-14T20:44:13.334Z,36.28
2022-10-14T20:46:42.085Z,36.90
2022-10-14T20:49:10.903Z,38.47
2022-10-14T20:51:40.164Z,38.15
2022-10-14T20:54:11.735Z,37.15
2022-10-14T20:56:40.626Z,40.17
2022-10-14T20:59:15.092Z,37.90
2022-10-14T21:01:43.788Z,39.10
2022-10-14T21:04:12.456Z,39.25
2022-10-14T21:06:41.296Z,37.80
2022-10-14T21:09:10.816Z,39.13
2022-10-14T21:11:47.834Z,37.28
2022-10-14T21:14:19.101Z,38.60
2022-10-14T21:16:47.996Z,40.25
2022-10-14T21:19:17.067Z,40.53
2022-10-14T21:21:46.335Z,36.95
2022-10-14T21:24:17.556Z,37.65
2022-10-14T21:26:48.484Z,38.25
2022-10-14T21:29:19.311Z,39.22
2022-10-14T21:31:49.250Z,40.63
2022-10-14T21:34:18.110Z,41.60
2022-10-14T21:36:46.922Z,39.97
2022-10-14T21:39:18.598Z,39.88
2022-10-14T21:41:47.684Z,38.88
2022-10-14T21:44:21.898Z,38.67
2022-10-14T21:46:50.930Z,36.22
2022-10-14T21:49:19.530Z,36.17
2022-10-14T21:51:48.394Z,38.20
2022-10-14T21:54:17.866Z,37.92
2022-10-14T21:56:46.735Z,36.50
2022-10-14T21:59:15.415Z,36.75
2022-10-14T22:01:45.412Z,36.97
2022-10-14T22:04:14.118Z,37.03
2022-10-14T22:06:42.834Z,37.15
2022-10-14T22:09:11.785Z,35.08
2022-10-14T22:11:42.437Z,38.92
2022-10-14T22:14:17.420Z,36.47
2022-10-14T22:16:48.545Z,36.53
2022-10-14T22:19:17.568Z,36.80
2022-10-14T22:21:46.623Z,37.25
2022-10-14T22:24:15.940Z,37.65
2022-10-14T22:26:44.497Z,38.53
2022-10-14T22:29:15.810Z,38.95
2022-10-14T22:31:46.752Z,38.65
2022-10-14T22:34:18.744Z,37.88
2022-10-14T22:36:47.403Z,37.15
2022-10-14T22:39:18.583Z,39.78
2022-10-14T22:41:47.269Z,35.88
2022-10-14T22:44:15.936Z,39.33
2022-10-14T22:46:44.555Z,43.60
2022-10-14T22:49:14.714Z,39.45
2022-10-14T22:51:43.581Z,36.75
2022-10-14T22:54:12.621Z,41.60
2022-10-14T22:56:41.439Z,38.78
2022-10-14T22:59:12.705Z,41.33
2022-10-14T23:01:44.192Z,41.50
2022-10-14T23:04:14.154Z,41.22
2022-10-14T23:06:44.848Z,42.50
2022-10-14T23:09:13.468Z,46.63
2022-10-14T23:11:42.074Z,45.22
2022-10-14T23:14:10.869Z,44.17
2022-10-14T23:16:41.001Z,42.40
2022-10-14T23:19:10.188Z,44.72
2022-10-14T23:21:40.962Z,44.13
2022-10-14T23:24:13.113Z,39.92
2022-10-14T23:26:42.110Z,40.95
2022-10-14T23:29:12.888Z,43.50
2022-10-14T23:31:43.094Z,44.03
2022-10-14T23:34:14.320Z,42.53
2022-10-14T23:36:44.888Z,40.35
2022-10-14T23:39:13.662Z,41.65
2022-10-14T23:41:42.253Z,40.55
2022-10-14T23:44:13.010Z,40.40
2022-10-14T23:46:41.645Z,39.72
2022-10-14T23:49:25.122Z,43.50
2022-10-14T23:51:56.821Z,43.00
2022-10-14T23:54:26.133Z,40.97
2022-10-14T23:56:54.736Z,38.55
2022-10-14T23:59:23.398Z,38.35
